Time;durP1;ratioP1;P1;durP2;ratioP2;P2;SDS_P1;SDS_P2;PMS_P1;PMS_P2;Temp;Humidity;BMP_temperature;BMP_pressure;BME280_temperature;BME280_humidity;BME280_pressure;Samples;Min_cycle;Max_cycle;Signal;HPM_P1;HPM_P2
2022/10/22 00:00:10;;;;;;;33.63;18.50;;;;;;;4.05;97.23;100806.89;1730585;82;21028;-65
2022/10/22 00:02:37;;;;;;;31.93;18.30;;;;;;;4.03;97.27;100797.34;1701888;82;21122;-67
2022/10/22 00:05:06;;;;;;;32.93;19.90;;;;;;;4.14;96.71;100791.66;1730793;82;21148;-64
2022/10/22 00:07:33;;;;;;;31.85;16.65;;;;;;;4.23;96.21;100792.11;1731027;82;21070;-66
2022/10/22 00:10:00;;;;;;;29.07;17.10;;;;;;;4.26;95.93;100782.56;1730752;82;21693;-66
2022/10/22 00:12:26;;;;;;;29.18;15.70;;;;;;;4.27;95.86;100786.89;1730895;82;21110;-66
2022/10/22 00:14:53;;;;;;;32.58;16.52;;;;;;;4.21;96.23;100790.82;1730678;82;21634;-64
2022/10/22 00:17:19;;;;;;;32.28;17.23;;;;;;;4.29;95.39;100786.89;1730664;82;21244;-65
2022/10/22 00:19:46;;;;;;;32.15;18.27;;;;;;;4.25;96.05;100796.45;1730764;82;21082;-66
2022/10/22 00:22:13;;;;;;;30.95;16.95;;;;;;;4.08;97.43;100792.99;1730723;82;21086;-65
2022/10/22 00:24:40;;;;;;;32.33;18.20;;;;;;;3.90;98.52;100794.70;1730933;82;21063;-65
2022/10/22 00:27:09;;;;;;;31.97;18.98;;;;;;;4.12;97.79;100786.91;1730949;82;21082;-65
2022/10/22 00:29:36;;;;;;;30.00;17.25;;;;;;;4.04;97.26;100775.61;1730840;82;21156;-67
2022/10/22 00:32:04;;;;;;;27.90;16.57;;;;;;;4.04;97.26;100775.61;1730588;82;21098;-65
2022/10/22 00:34:31;;;;;;;32.40;18.70;;;;;;;4.06;97.26;100779.09;1745242;80;21129;-67
2022/10/22 00:36:58;;;;;;;27.90;15.90;;;;;;;4.09;96.87;100776.47;1779960;80;21064;-67
2022/10/22 00:39:25;;;;;;;28.85;18.42;;;;;;;4.11;97.07;100777.34;1761033;81;21055;-66
2022/10/22 00:41:53;;;;;;;30.62;18.15;;;;;;;4.16;96.50;100759.95;1780100;80;21548;-64
2022/10/22 00:45:08;;;;;;;33.50;18.30;;;;;;;4.13;95.91;100767.78;1780287;80;21353;-66
2022/10/22 00:47:58;;;;;;;25.97;15.65;;;;;;;4.17;95.39;100763.88;1747662;82;21481;-66
2022/10/22 00:50:38;;;;;;;30.02;17.42;;;;;;;4.19;94.95;100767.79;1761172;81;21274;-65
2022/10/22 00:53:10;;;;;;;38.17;19.85;;;;;;;4.20;94.82;100763.00;1749690;82;21063;-65
2022/10/22 00:55:37;;;;;;;30.12;17.95;;;;;;;4.28;94.50;100761.27;1730995;82;21561;-66
2022/10/22 00:58:04;;;;;;;28.80;17.85;;;;;;;4.11;95.43;100752.13;1730871;82;21544;-66
2022/10/22 01:00:30;;;;;;;32.95;18.92;;;;;;;4.09;96.07;100756.92;1730719;82;21022;-66
2022/10/22 01:02:58;;;;;;;30.30;18.82;;;;;;;4.22;95.58;100750.83;1730735;82;21084;-65
2022/10/22 01:05:32;;;;;;;29.27;17.87;;;;;;;4.22;95.42;100753.44;1730684;82;21038;-65
2022/10/22 01:07:59;;;;;;;28.95;15.90;;;;;;;4.22;95.54;100746.92;1729643;82;21242;-66
2022/10/22 01:10:37;;;;;;;27.32;14.65;;;;;;;4.23;95.54;100743.42;1730774;82;21112;-66
2022/10/22 01:13:18;;;;;;;24.95;14.25;;;;;;;4.26;95.48;100739.53;1730786;82;21072;-66
2022/10/22 01:16:13;;;;;;;28.73;17.48;;;;;;;4.35;94.96;100729.53;1731125;82;21533;-65
2022/10/22 01:19:02;;;;;;;28.92;18.30;;;;;;;4.44;94.37;100728.63;1730983;82;21055;-65
2022/10/22 01:21:35;;;;;;;27.20;17.15;;;;;;;4.30;94.45;100734.75;1730118;82;21273;-65
2022/10/22 01:24:26;;;;;;;26.48;16.85;;;;;;;4.36;94.29;100726.90;1730778;82;21041;-65
2022/10/22 01:27:24;;;;;;;32.42;18.32;;;;;;;4.28;94.44;100724.77;1730938;82;21064;-65
2022/10/22 01:30:03;;;;;;;30.05;17.70;;;;;;;4.34;94.08;100709.08;1731002;82;21654;-65
2022/10/22 01:32:34;;;;;;;31.05;19.10;;;;;;;4.37;94.06;100692.14;1730346;82;21013;-66
2022/10/22 01:35:03;;;;;;;28.90;18.42;;;;;;;4.37;94.06;100692.14;1748769;81;21211;-66
2022/10/22 01:37:33;;;;;;;29.60;18.42;;;;;;;4.50;93.39;100707.75;1751173;81;21538;-67
2022/10/22 01:40:01;;;;;;;33.35;17.50;;;;;;;4.52;93.12;100715.14;1751408;81;21049;-65
2022/10/22 01:42:28;;;;;;;35.00;19.17;;;;;;;4.47;93.40;100716.89;1749712;82;21064;-65
2022/10/22 01:44:55;;;;;;;28.77;17.32;;;;;;;4.45;93.45;100718.64;1751415;81;21597;-67
2022/10/22 01:47:57;;;;;;;33.53;18.95;;;;;;;4.45;93.37;100718.20;1749772;82;21072;-65
2022/10/22 01:50:39;;;;;;;27.93;17.98;;;;;;;4.46;93.37;100706.02;1751387;81;21073;-65
2022/10/22 01:53:14;;;;;;;34.53;20.88;;;;;;;4.41;93.85;100707.33;1749508;82;21660;-64
2022/10/22 01:55:55;;;;;;;32.83;18.48;;;;;;;4.39;93.99;100703.44;1751015;81;21014;-65
2022/10/22 01:58:43;;;;;;;;;;;;;;;4.49;93.37;100700.81;1752389;82;21046;-64
2022/10/22 02:01:47;;;;;;;31.15;19.02;;;;;;;4.48;93.56;100705.13;1779503;80;21128;-66
2022/10/22 02:04:36;;;;;;;31.45;19.57;;;;;;;4.48;93.08;100699.05;1780300;80;21027;-66
2022/10/22 02:07:05;;;;;;;35.03;19.07;;;;;;;4.51;92.98;100691.21;1780355;80;21063;-66
2022/10/22 02:09:32;;;;;;;32.80;20.40;;;;;;;4.64;92.51;100685.08;1780213;80;21556;-67
2022/10/22 02:12:01;;;;;;;28.55;17.80;;;;;;;4.64;92.51;100685.08;1780266;80;21090;-65
2022/10/22 02:14:28;;;;;;;34.45;21.82;;;;;;;4.57;92.70;100678.16;1780118;80;21861;-65
2022/10/22 02:16:55;;;;;;;32.73;20.12;;;;;;;4.47;93.30;100684.30;1780201;80;21093;-66
2022/10/22 02:19:41;;;;;;;32.20;18.45;;;;;;;4.43;93.51;100675.59;1780294;80;21031;-65
2022/10/22 02:22:09;;;;;;;33.95;19.98;;;;;;;4.35;93.59;100682.16;1780079;80;21046;-66
2022/10/22 02:24:36;;;;;;;32.57;19.50;;;;;;;4.46;93.48;100670.80;1780337;80;21071;-65
2022/10/22 02:27:24;;;;;;;33.23;20.20;;;;;;;4.52;92.90;100670.80;1756321;80;21235;-66
2022/10/22 02:30:06;;;;;;;30.05;18.70;;;;;;;4.49;92.95;100672.13;1780192;80;21732;-66
2022/10/22 02:32:45;;;;;;;34.73;19.67;;;;;;;4.54;92.80;100667.75;1780431;80;21050;-64
2022/10/22 02:35:16;;;;;;;35.98;20.52;;;;;;;4.68;91.71;100660.72;1779702;80;21116;-65
2022/10/22 02:37:43;;;;;;;33.23;20.32;;;;;;;4.68;91.53;100654.20;1753254;81;21061;-64
2022/10/22 02:40:10;;;;;;;37.83;21.85;;;;;;;4.68;91.53;100654.20;1770741;81;21252;-65
2022/10/22 02:42:37;;;;;;;33.45;20.52;;;;;;;4.61;91.77;100649.89;1770573;81;21108;-64
2022/10/22 02:45:05;;;;;;;29.35;17.73;;;;;;;4.43;92.83;100655.17;1725069;81;21490;-65
2022/10/22 02:47:32;;;;;;;34.88;20.70;;;;;;;4.27;94.04;100647.39;1770399;81;21088;-67
2022/10/22 02:49:58;;;;;;;34.25;19.42;;;;;;;4.31;94.21;100653.03;1770314;81;21021;-65
2022/10/22 02:52:25;;;;;;;34.43;20.17;;;;;;;4.34;94.44;100642.59;1752922;81;21244;-65
2022/10/22 02:54:51;;;;;;;31.42;18.95;;;;;;;4.51;93.72;100640.34;1770518;81;21069;-66
2022/10/22 02:57:18;;;;;;;30.15;19.37;;;;;;;4.51;93.33;100627.31;1770730;81;21049;-65
2022/10/22 02:59:45;;;;;;;33.65;20.80;;;;;;;4.56;93.46;100633.40;1752950;81;21048;-66
2022/10/22 03:02:12;;;;;;;39.27;22.05;;;;;;;4.58;93.35;100631.66;1771767;81;21040;-66
2022/10/22 03:04:41;;;;;;;32.10;19.80;;;;;;;4.58;93.05;100640.78;1772202;81;21137;-65
2022/10/22 03:07:08;;;;;;;34.20;21.25;;;;;;;4.65;92.72;100637.27;1785991;80;21019;-65
2022/10/22 03:09:36;;;;;;;33.80;20.55;;;;;;;4.66;92.56;100627.25;1772102;81;22049;-65
2022/10/22 03:12:04;;;;;;;31.60;19.02;;;;;;;4.65;92.34;100628.14;1743717;81;21603;-64
2022/10/22 03:14:31;;;;;;;33.23;19.02;;;;;;;4.72;91.62;100625.92;1772178;81;21508;-64
2022/10/22 03:16:57;;;;;;;30.95;20.37;;;;;;;4.72;91.62;100625.92;1772359;81;22185;-66
2022/10/22 03:19:24;;;;;;;39.00;21.40;;;;;;;4.74;91.58;100621.57;1772141;81;21197;-66
2022/10/22 03:22:06;;;;;;;33.85;19.23;;;;;;;4.54;92.81;100592.11;1785409;80;21068;-65
2022/10/22 03:24:37;;;;;;;29.67;18.45;;;;;;;4.69;92.19;100618.09;1744209;81;21107;-65
2022/10/22 03:27:05;;;;;;;37.65;21.07;;;;;;;4.61;92.27;100606.84;1785717;80;21519;-67
2022/10/22 03:29:34;;;;;;;29.98;17.50;;;;;;;4.46;92.88;100601.69;1772217;81;21146;-66
2022/10/22 03:32:02;;;;;;;34.20;21.30;;;;;;;4.46;92.88;100601.69;1772336;81;21040;-64
2022/10/22 03:34:29;;;;;;;33.63;19.52;;;;;;;4.60;92.50;100599.87;1757868;81;21048;-65
2022/10/22 03:39:53;;;;;;;29.93;18.30;;;;;;;3.36;100.00;100611.50;1814394;79;23169;-65
2022/10/22 03:42:21;;;;;;;33.70;18.62;;;;;;;4.07;96.80;100608.78;1787404;80;20973;-66
2022/10/22 03:44:47;;;;;;;31.82;19.02;;;;;;;4.16;95.80;100601.83;1787463;80;21716;-65
2022/10/22 03:47:14;;;;;;;33.75;18.27;;;;;;;4.01;96.53;100593.18;1787674;80;21561;-65
2022/10/22 03:49:41;;;;;;;30.62;18.60;;;;;;;3.97;97.16;100593.17;1787357;80;21014;-65
2022/10/22 03:52:12;;;;;;;31.02;19.73;;;;;;;3.90;97.53;100592.75;1787301;80;21572;-65
2022/10/22 03:54:38;;;;;;;29.67;17.35;;;;;;;3.91;97.73;100578.88;1787450;80;21008;-65
2022/10/22 03:57:05;;;;;;;30.97;17.50;;;;;;;3.95;97.92;100573.20;1787254;80;21220;-65
2022/10/22 03:59:40;;;;;;;34.23;18.60;;;;;;;4.13;97.06;100582.27;1787455;80;20973;-67
2022/10/22 04:02:09;;;;;;;28.30;17.15;;;;;;;4.11;97.07;100576.63;1787124;80;21072;-65
2022/10/22 04:04:36;;;;;;;28.27;17.95;;;;;;;4.03;97.66;100576.66;1787514;80;21076;-66
2022/10/22 04:07:04;;;;;;;30.02;17.75;;;;;;;4.01;97.87;100573.19;1787603;80;21020;-66
2022/10/22 04:09:32;;;;;;;39.53;20.30;;;;;;;3.97;98.30;100571.02;1787780;80;21187;-66
2022/10/22 04:11:59;;;;;;;32.75;19.20;;;;;;;4.02;98.26;100567.53;1787256;80;21024;-65
2022/10/22 04:14:25;;;;;;;32.83;20.25;;;;;;;4.08;97.84;100567.09;1787894;80;21584;-66
2022/10/22 04:16:53;;;;;;;31.70;18.82;;;;;;;4.12;97.62;100571.42;1787639;80;21072;-66
2022/10/22 04:19:20;;;;;;;29.77;18.57;;;;;;;4.12;97.62;100571.42;1787601;80;21028;-65
2022/10/22 04:21:46;;;;;;;39.63;20.45;;;;;;;4.09;97.61;100571.41;1787331;80;21118;-65
2022/10/22 04:24:13;;;;;;;33.23;20.82;;;;;;;4.02;98.29;100571.45;1787281;80;21024;-65
2022/10/22 04:26:40;;;;;;;37.40;20.17;;;;;;;4.03;98.07;100571.89;1787328;80;21575;-66
2022/10/22 04:29:07;;;;;;;33.50;20.08;;;;;;;4.13;97.38;100570.98;1788008;80;21592;-66
2022/10/22 04:31:35;;;;;;;28.45;17.52;;;;;;;4.10;97.49;100559.27;1787443;80;21076;-66
2022/10/22 04:34:02;;;;;;;28.45;17.87;;;;;;;4.18;97.28;100554.88;1787377;80;21093;-65
2022/10/22 04:36:29;;;;;;;35.45;19.92;;;;;;;4.03;97.78;100556.26;1787427;80;21025;-65
2022/10/22 04:38:58;;;;;;;30.85;16.42;;;;;;;4.19;97.52;100556.63;1783516;80;21561;-65
2022/10/22 04:41:32;;;;;;;28.07;17.32;;;;;;;4.34;96.73;100553.93;1779773;80;21061;-65
2022/10/22 04:43:59;;;;;;;33.08;20.27;;;;;;;4.31;96.59;100554.40;1779827;80;21588;-66
2022/10/22 04:46:29;;;;;;;38.05;18.62;;;;;;;4.33;96.45;100547.00;1780136;80;21506;-65
2022/10/22 04:48:55;;;;;;;31.05;17.82;;;;;;;4.43;95.86;100558.69;1779844;80;21046;-66
2022/10/22 04:51:24;;;;;;;32.88;19.05;;;;;;;4.43;95.86;100558.69;1779421;80;20967;-64
2022/10/22 04:53:52;;;;;;;35.63;20.23;;;;;;;4.51;95.32;100560.80;1779515;80;21049;-66
2022/10/22 04:56:23;;;;;;;28.65;17.35;;;;;;;4.65;94.56;100562.91;1779252;80;21081;-66
2022/10/22 04:58:53;;;;;;;30.90;17.55;;;;;;;4.74;93.96;100566.77;1779768;80;21842;-65
2022/10/22 05:01:25;;;;;;;28.97;16.90;;;;;;;4.79;93.41;100570.22;1779357;80;21053;-65
2022/10/22 05:03:54;;;;;;;27.65;16.85;;;;;;;4.79;93.52;100567.61;1778930;80;21505;-66
2022/10/22 05:06:21;;;;;;;29.55;16.97;;;;;;;4.83;93.65;100579.77;1778758;80;21056;-67
2022/10/22 05:08:57;;;;;;;27.35;16.90;;;;;;;4.83;93.28;100577.16;1779036;80;21524;-66
2022/10/22 05:11:27;;;;;;;24.67;15.28;;;;;;;4.94;92.98;100580.12;1777606;80;21221;-66
2022/10/22 05:13:56;;;;;;;32.38;16.93;;;;;;;5.05;92.23;100566.55;1778967;80;21584;-66
2022/10/22 05:16:23;;;;;;;30.90;16.95;;;;;;;5.15;91.53;100562.98;1778823;80;21127;-66
2022/10/22 05:18:50;;;;;;;29.57;16.45;;;;;;;5.23;90.73;100562.50;1779103;80;21092;-66
2022/10/22 05:21:18;;;;;;;29.85;16.82;;;;;;;5.22;90.37;100560.78;1778957;80;21054;-65
2022/10/22 05:23:47;;;;;;;29.67;17.80;;;;;;;5.13;90.96;100554.33;1778973;80;21014;-67
2022/10/22 05:26:17;;;;;;;29.57;16.93;;;;;;;5.26;89.89;100548.09;1779315;80;21103;-66
2022/10/22 05:28:46;;;;;;;;;;;;;;;5.44;89.23;100548.83;1781938;80;21565;-66
2022/10/22 05:31:12;;;;;;;33.75;17.92;;;;;;;5.49;88.52;100547.48;1779512;80;20149;-67
2022/10/22 05:33:39;;;;;;;35.33;18.27;;;;;;;5.48;87.84;100549.67;1780978;79;21533;-66
2022/10/22 05:36:06;;;;;;;29.55;16.95;;;;;;;5.60;87.36;100547.80;1795631;79;21074;-65
2022/10/22 05:38:33;;;;;;;30.75;18.00;;;;;;;5.52;87.52;100543.52;1722672;83;21019;-66
2022/10/22 05:41:11;;;;;;;27.10;16.32;;;;;;;5.47;87.58;100537.03;1794608;80;21043;-67
2022/10/22 05:43:39;;;;;;;32.35;17.15;;;;;;;5.70;87.24;100537.25;1794521;80;21550;-67
2022/10/22 05:46:14;;;;;;;31.65;16.82;;;;;;;5.59;87.58;100538.23;1794591;80;21078;-66
2022/10/22 05:48:43;;;;;;;26.80;16.55;;;;;;;5.70;87.04;100542.02;1724294;82;21035;-66
2022/10/22 05:51:11;;;;;;;31.93;17.23;;;;;;;5.77;86.30;100541.08;1724272;82;21063;-66
2022/10/22 05:53:40;;;;;;;35.35;17.17;;;;;;;5.84;85.98;100543.19;1724144;83;21066;-66
2022/10/22 05:56:14;;;;;;;33.15;17.35;;;;;;;5.87;85.82;100540.56;1795050;80;21066;-66
2022/10/22 05:58:44;;;;;;;33.48;16.25;;;;;;;5.80;86.17;100535.84;1724306;83;21534;-67
2022/10/22 06:01:28;;;;;;;31.80;16.85;;;;;;;5.76;85.79;100537.19;1724274;83;21104;-67
2022/10/22 06:03:59;;;;;;;31.87;17.00;;;;;;;5.87;85.78;100537.95;1724027;83;21571;-66
2022/10/22 06:06:30;;;;;;;29.23;17.60;;;;;;;6.02;85.44;100545.63;1724384;83;21014;-67
2022/10/22 06:09:09;;;;;;;32.17;15.98;;;;;;;6.17;84.81;100543.73;1794767;80;21093;-66
2022/10/22 06:11:35;;;;;;;30.50;15.80;;;;;;;6.30;84.54;100542.66;1715116;83;21598;-67
2022/10/22 06:14:03;;;;;;;30.45;15.05;;;;;;;6.49;83.84;100541.55;1794781;80;21883;-66
2022/10/22 06:16:30;;;;;;;24.87;13.85;;;;;;;6.64;82.42;100543.53;1794777;79;21538;-66
2022/10/22 06:19:00;;;;;;;26.55;14.80;;;;;;;6.92;81.80;100533.09;1794916;80;21003;-67
2022/10/22 06:21:27;;;;;;;35.10;14.50;;;;;;;7.06;81.22;100546.38;1794384;80;21046;-65
2022/10/22 06:23:56;;;;;;;30.43;15.50;;;;;;;7.24;80.41;100535.60;1794955;79;21065;-66
2022/10/22 06:26:22;;;;;;;22.67;14.07;;;;;;;7.37;79.24;100535.41;1794226;80;21774;-66
2022/10/22 06:28:50;;;;;;;24.02;13.00;;;;;;;7.53;78.97;100532.94;1724138;83;21106;-67
2022/10/22 06:31:17;;;;;;;24.07;13.53;;;;;;;7.75;77.80;100529.03;1794586;80;21081;-67
2022/10/22 06:33:45;;;;;;;24.10;13.72;;;;;;;8.19;77.19;100531.21;1721126;83;21523;-67
2022/10/22 06:36:14;;;;;;;19.40;12.73;;;;;;;8.32;76.20;100533.56;1773151;80;21050;-66
2022/10/22 06:38:42;;;;;;;31.07;12.75;;;;;;;8.43;73.98;100519.80;1773298;80;21103;-65
2022/10/22 06:41:14;;;;;;;21.15;12.30;;;;;;;8.59;73.91;100525.58;1773041;80;21037;-67
2022/10/22 06:43:48;;;;;;;28.90;13.93;;;;;;;8.72;73.44;100518.27;1773476;80;21695;-67
2022/10/22 06:46:18;;;;;;;22.17;11.85;;;;;;;8.71;72.47;100517.41;1773144;80;21037;-66
2022/10/22 06:48:57;;;;;;;19.17;11.50;;;;;;;8.65;71.80;100516.69;1773434;80;21072;-67
2022/10/22 06:51:24;;;;;;;20.72;11.78;;;;;;;8.70;71.30;100522.26;1773081;80;21536;-66
2022/10/22 06:53:52;;;;;;;19.52;10.93;;;;;;;8.65;70.84;100523.25;1773348;80;21578;-66
2022/10/22 06:56:21;;;;;;;23.50;10.90;;;;;;;8.65;71.82;100514.06;1773115;80;21011;-66
2022/10/22 06:58:49;;;;;;;26.68;11.10;;;;;;;8.51;71.67;100512.63;1773204;80;21585;-67
2022/10/22 07:01:17;;;;;;;20.90;10.03;;;;;;;8.53;71.56;100516.06;1773263;80;21042;-66
2022/10/22 07:03:44;;;;;;;23.75;11.40;;;;;;;8.66;69.94;100505.30;1773200;80;21111;-67
2022/10/22 07:06:13;;;;;;;22.15;11.33;;;;;;;8.81;69.74;100500.55;1773237;80;20990;-67
2022/10/22 07:08:40;;;;;;;23.75;11.63;;;;;;;8.69;69.71;100492.95;1773251;80;21066;-66
2022/10/22 07:11:17;;;;;;;28.02;11.40;;;;;;;8.76;69.50;100494.52;1773084;80;21016;-66
2022/10/22 07:13:44;;;;;;;30.20;12.70;;;;;;;8.91;68.49;100506.44;1773242;80;21021;-66
2022/10/22 07:16:11;;;;;;;20.97;10.50;;;;;;;9.20;67.99;100493.02;1773212;80;21156;-66
2022/10/22 07:18:38;;;;;;;23.52;11.60;;;;;;;9.28;67.50;100502.90;1773204;80;21600;-68
2022/10/22 07:21:07;;;;;;;22.13;10.88;;;;;;;9.27;67.37;100497.24;1773522;80;21044;-67
2022/10/22 07:23:34;;;;;;;23.32;11.70;;;;;;;9.20;67.43;100500.91;1773178;80;21034;-67
2022/10/22 07:26:06;;;;;;;21.52;11.28;;;;;;;9.19;67.02;100497.87;1773482;80;21011;-66
2022/10/22 07:28:35;;;;;;;22.70;11.93;;;;;;;9.05;67.59;100500.00;1773761;80;21077;-67
2022/10/22 07:31:01;;;;;;;22.35;11.60;;;;;;;9.20;67.44;100496.96;1773276;80;21053;-67
2022/10/22 07:33:28;;;;;;;26.57;11.75;;;;;;;9.18;67.51;100490.91;1772036;80;21124;-67
2022/10/22 07:36:04;;;;;;;21.85;11.83;;;;;;;9.36;66.82;100482.55;1742294;82;21093;-67
2022/10/22 07:38:32;;;;;;;22.02;11.08;;;;;;;9.49;66.34;100487.47;1742417;82;21096;-68
2022/10/22 07:41:00;;;;;;;23.95;10.93;;;;;;;9.47;65.90;100486.64;1742389;82;21526;-67
2022/10/22 07:43:26;;;;;;;19.27;10.32;;;;;;;9.64;65.77;100476.55;1742547;82;21041;-66
2022/10/22 11:57:27;;;;;;;20.20;10.85;;;;;;;11.36;77.38;100265.52;1758705;78;84834;-87
2022/10/22 12:00:00;;;;;;;24.27;12.90;;;;;;;11.57;76.10;100261.66;1731122;82;21006;-87
2022/10/22 12:02:43;;;;;;;21.57;11.63;;;;;;;11.67;75.94;100249.85;1703097;81;20962;-85
2022/10/22 12:05:25;;;;;;;14.47;8.10;;;;;;;11.63;75.20;100253.05;1733146;81;20963;-88
2022/10/22 12:08:16;;;;;;;23.30;12.07;;;;;;;11.58;75.17;100256.80;1714250;82;21170;-87
2022/10/22 12:11:01;;;;;;;18.90;9.33;;;;;;;11.65;74.86;100251.69;1696079;82;21054;-86
2022/10/22 12:13:32;;;;;;;23.02;10.55;;;;;;;11.66;74.86;100257.34;1696936;82;21163;-87
2022/10/22 12:16:02;;;;;;;19.48;9.63;;;;;;;11.77;75.02;100265.70;1700424;82;21063;-86
2022/10/22 12:18:42;;;;;;;19.37;10.25;;;;;;;11.81;74.36;100257.22;1721758;82;21055;-89
2022/10/22 12:21:16;;;;;;;16.73;8.70;;;;;;;11.88;74.25;100252.97;1720042;82;21088;-88
2022/10/22 12:23:43;;;;;;;24.07;8.98;;;;;;;11.82;74.23;100250.53;1703795;83;20981;-88
2022/10/22 12:26:24;;;;;;;17.15;9.48;;;;;;;11.91;73.87;100254.16;1718882;82;20993;-88
2022/10/22 12:28:58;;;;;;;;;;;;;;;12.04;73.61;100250.56;1724036;82;21049;-89
2022/10/22 12:31:25;;;;;;;16.40;9.03;;;;;;;12.10;73.70;100252.08;1719247;82;20190;-88
2022/10/22 12:33:57;;;;;;;16.85;9.45;;;;;;;12.11;73.11;100259.09;1714905;82;21393;-89
2022/10/22 12:36:26;;;;;;;18.65;9.05;;;;;;;12.22;72.87;100256.88;1713808;82;21223;-86
2022/10/22 12:39:04;;;;;;;25.50;11.53;;;;;;;12.33;72.88;100255.97;1716842;82;21086;-86
2022/10/22 12:41:34;;;;;;;24.85;12.68;;;;;;;12.52;72.16;100252.54;1735039;81;21548;-88
2022/10/22 12:44:02;;;;;;;21.60;10.25;;;;;;;12.60;71.82;100246.44;1724256;82;21144;-89
2022/10/22 12:46:31;;;;;;;32.90;16.15;;;;;;;12.52;71.35;100243.30;1713116;83;21209;-89
2022/10/22 12:48:59;;;;;;;34.73;18.57;;;;;;;12.54;71.82;100240.13;1714160;83;21256;-86
2022/10/22 12:51:26;;;;;;;31.95;16.90;;;;;;;12.55;71.85;100232.58;1715649;83;21008;-89
2022/10/22 12:53:59;;;;;;;31.15;14.73;;;;;;;12.51;72.10;100236.27;1709145;82;21170;-89
2022/10/22 12:56:31;;;;;;;25.43;13.25;;;;;;;12.56;71.61;100229.89;1718290;83;21500;-89
2022/10/22 12:59:30;;;;;;;24.98;11.28;;;;;;;12.50;72.03;100227.50;1709250;82;21096;-88
2022/10/22 13:01:56;;;;;;;24.77;12.18;;;;;;;12.60;71.62;100227.95;1707243;83;21013;-89
2022/10/22 13:04:35;;;;;;;22.82;12.03;;;;;;;12.62;71.52;100231.39;1707901;80;80141;-66
2022/10/22 13:07:17;;;;;;;18.70;10.00;;;;;;;12.57;71.49;100228.95;1712070;82;21571;-67
2022/10/22 13:09:57;;;;;;;25.05;12.00;;;;;;;12.54;72.01;100232.20;1719115;82;21100;-68
2022/10/22 13:12:27;;;;;;;;;;;;;;;12.59;71.94;100229.74;1732915;81;21011;-67
2022/10/22 13:14:55;;;;;;;22.60;11.73;;;;;;;12.61;71.88;100233.65;1724632;81;20246;-67
2022/10/22 13:17:40;;;;;;;22.27;12.25;;;;;;;12.51;72.40;100224.39;1721307;82;23443;-67
2022/10/22 13:20:21;;;;;;;22.00;10.43;;;;;;;12.45;72.57;100216.75;1715644;82;21160;-67
2022/10/22 13:23:01;;;;;;;18.35;9.63;;;;;;;12.35;72.82;100221.11;1729833;82;21067;-67
2022/10/22 13:25:33;;;;;;;21.27;11.18;;;;;;;12.26;73.68;100223.26;1705565;83;21142;-68
2022/10/22 13:28:20;;;;;;;18.55;9.75;;;;;;;12.24;74.19;100218.06;1711277;83;21037;-68
2022/10/22 13:30:59;;;;;;;21.95;9.90;;;;;;;12.10;75.31;100211.16;1710572;82;21010;-68
2022/10/22 13:33:42;;;;;;;21.52;11.22;;;;;;;12.05;75.62;100203.91;1720967;82;21089;-67
2022/10/22 13:36:13;;;;;;;18.10;9.95;;;;;;;12.06;75.89;100200.36;1723454;81;21054;-67
2022/10/22 13:38:40;;;;;;;18.42;11.35;;;;;;;12.14;75.53;100200.88;1720701;82;22007;-68
2022/10/22 13:41:33;;;;;;;24.90;12.20;;;;;;;12.21;75.21;100198.84;1720075;82;21585;-67
2022/10/22 13:43:57;;;;;;;33.02;16.25;;;;;;;12.28;74.43;100188.41;1707906;82;21652;-68
2022/10/22 13:46:25;;;;;;;56.00;26.55;;;;;;;12.26;75.23;100189.81;1720014;82;21112;-67
2022/10/22 13:48:54;;;;;;;32.00;15.45;;;;;;;12.21;75.22;100191.77;1715147;82;21556;-66
2022/10/22 13:51:30;;;;;;;18.32;9.68;;;;;;;12.16;75.05;100185.84;1711981;82;21140;-67
2022/10/22 13:53:56;;;;;;;16.48;8.90;;;;;;;12.25;75.85;100196.00;1722305;81;21097;-67
2022/10/22 13:56:23;;;;;;;14.78;9.15;;;;;;;12.26;75.58;100192.45;1737467;81;21086;-67
2022/10/22 13:58:49;;;;;;;21.42;12.63;;;;;;;12.25;75.90;100189.41;1712557;81;21200;-68
2022/10/22 14:01:20;;;;;;;19.57;11.55;;;;;;;12.23;75.72;100197.00;1696383;83;21173;-67
2022/10/22 14:03:49;;;;;;;17.90;10.55;;;;;;;12.20;76.53;100192.71;1682547;83;21153;-67
2022/10/22 14:06:17;;;;;;;24.50;11.93;;;;;;;12.19;76.62;100188.33;1706160;83;21549;-68
2022/10/22 14:08:50;;;;;;;23.38;15.23;;;;;;;12.09;77.35;100187.02;1698352;83;21110;-67
2022/10/22 14:11:16;;;;;;;29.32;16.40;;;;;;;12.13;76.87;100194.75;1700956;83;21821;-67
2022/10/22 14:13:43;;;;;;;26.12;14.20;;;;;;;12.14;76.04;100192.96;1692482;83;21630;-66
2022/10/22 14:16:18;;;;;;;29.42;15.08;;;;;;;12.21;77.02;100193.56;1702984;83;21730;-67
2022/10/22 14:18:44;;;;;;;24.50;14.23;;;;;;;12.19;76.78;100196.25;1700880;83;21053;-67
2022/10/22 14:21:12;;;;;;;38.00;24.07;;;;;;;12.23;75.87;100197.84;1703897;82;21544;-68
2022/10/22 14:23:40;;;;;;;32.25;18.82;;;;;;;12.20;76.62;100194.03;1715802;83;21064;-67
2022/10/22 14:26:22;;;;;;;34.95;21.00;;;;;;;12.18;76.68;100194.09;1707005;83;21631;-67
2022/10/22 14:28:48;;;;;;;31.62;17.12;;;;;;;12.21;77.03;100190.45;1692461;83;21096;-67
2022/10/22 14:31:15;;;;;;;38.25;22.45;;;;;;;12.25;77.45;100184.13;1706571;83;21096;-67
2022/10/22 14:33:42;;;;;;;46.83;21.23;;;;;;;12.21;77.91;100181.21;1704455;83;21655;-67
2022/10/22 14:36:12;;;;;;;37.40;19.87;;;;;;;12.10;78.72;100170.25;1697713;83;21652;-67
2022/10/22 14:38:39;;;;;;;40.20;21.02;;;;;;;12.05;79.28;100176.19;1683609;84;21158;-67
2022/10/22 14:41:11;;;;;;;57.33;28.02;;;;;;;12.06;79.99;100160.77;1710285;83;21166;-67
2022/10/22 14:43:38;;;;;;;59.20;26.75;;;;;;;11.99;80.50;100149.61;1706899;83;21505;-67
2022/10/22 14:46:07;;;;;;;42.15;19.98;;;;;;;12.02;80.82;100140.70;1678396;84;21528;-67
2022/10/22 14:48:34;;;;;;;45.07;24.63;;;;;;;12.01;80.80;100137.64;1684131;83;21065;-65
2022/10/22 14:51:02;;;;;;;52.60;24.70;;;;;;;11.95;80.82;100118.52;1679768;84;21044;-67
2022/10/22 14:53:29;;;;;;;35.95;20.08;;;;;;;11.98;80.84;100113.56;1686471;84;21334;-67
2022/10/22 14:55:58;;;;;;;48.63;22.80;;;;;;;11.88;80.75;100105.20;1686757;83;21585;-67
2022/10/22 14:58:25;;;;;;;58.83;31.20;;;;;;;11.92;80.36;100104.14;1682949;84;21116;-66
2022/10/22 15:00:51;;;;;;;35.85;19.65;;;;;;;11.92;80.17;100102.83;1712641;82;21168;-67
2022/10/22 15:03:19;;;;;;;48.08;24.07;;;;;;;11.93;79.78;100100.57;1690132;83;21823;-67
2022/10/22 15:05:52;;;;;;;34.45;18.62;;;;;;;11.95;80.28;100089.48;1689226;83;21563;-66
2022/10/22 15:08:20;;;;;;;43.80;21.45;;;;;;;11.81;80.78;100093.16;1699705;83;21545;-67
2022/10/22 15:10:58;;;;;;;44.33;23.38;;;;;;;11.84;80.64;100083.78;1677396;84;21591;-67
2022/10/22 15:13:26;;;;;;;61.65;34.15;;;;;;;11.79;80.87;100081.81;1687456;83;22237;-67
2022/10/22 15:15:53;;;;;;;45.83;25.05;;;;;;;11.83;80.71;100093.10;1688399;83;21897;-66
2022/10/22 20:00:32;;;;;;;88.22;43.38;;;;;;;6.71;100.00;100057.89;1837193;76;27487;-93
2022/10/22 20:02:59;;;;;;;78.22;40.38;;;;;;;7.65;100.00;100058.72;1762430;79;21029;-89
2022/10/22 20:05:26;;;;;;;92.47;47.13;;;;;;;8.09;100.00;100063.20;1767952;80;21098;-92
2022/10/22 20:07:52;;;;;;;89.37;48.45;;;;;;;8.41;100.00;100057.08;1734810;81;21041;-92
2022/10/22 20:10:20;;;;;;;94.85;53.17;;;;;;;8.65;100.00;100054.61;1705503;83;21779;-90
2022/10/22 20:12:47;;;;;;;103.38;52.38;;;;;;;8.79;100.00;100059.88;1746502;82;21562;-92
2022/10/22 20:15:15;;;;;;;101.75;53.30;;;;;;;8.82;100.00;100055.83;1709858;83;21379;-92
2022/10/22 20:17:47;;;;;;;97.53;52.73;;;;;;;8.72;100.00;100060.97;1714716;82;21465;-92
2022/10/22 20:20:14;;;;;;;104.30;55.67;;;;;;;8.84;100.00;100066.30;1704034;82;21061;-91
2022/10/22 20:22:41;;;;;;;114.10;59.42;;;;;;;8.90;100.00;100073.96;1709792;82;21057;-92
2022/10/22 20:25:10;;;;;;;105.25;58.15;;;;;;;8.97;100.00;100068.06;1765986;80;21106;-89
2022/10/22 20:27:37;;;;;;;109.95;57.05;;;;;;;9.07;100.00;100060.78;1755441;80;21126;-91
2022/10/22 20:30:05;;;;;;;107.75;58.65;;;;;;;9.05;100.00;100067.84;1754698;80;21136;-93